Meteo Giornale » Osservazioni meteo Sud Africa » Springs
ore: 23:00 - Osservazioni Meteo Springs
Lat. 26° 15' S Lon. 28° 24' E Alt. 1628 metri s.l.m.
11 °C
Sereno
Temp. 24 Ore
6 °C
28 °C
Nord
0 Km/h
Dew point 4 °C
Umidità 61 %
Visibilità 0 Km
Il sole sorge alle ore 06:19
Il sole tramonta alle ore 17:53
| Data e Ora | Cielo e Fenomeni | T °C | DP °C | Um. % | Pres. hPa | Vis. km | Vento km/h | |
|---|---|---|---|---|---|---|---|---|
| Oggi h: 23:00 | Sereno | 11 | 4 | 61 | 1030 | 0 | N 0 | |
| Oggi h: 22:00 | Sereno | 12 | 4 | 57 | 1030 | 0 | N 0 | |
| Oggi h: 21:00 | Sereno | 15 | 4 | 47 | 1030 | 0 | N 7.4 | |
| Oggi h: 20:00 | Sereno | 15 | 3 | 44 | 1029 | 0 | N 3.7 | |
| Oggi h: 19:00 | Sereno | 16 | 3 | 41 | 1028 | 0 | N 3.7 | |
| Oggi h: 18:00 | Sereno | 19 | 2 | 32 | 1028 | 0 | N 1.8 | |
| Oggi h: 17:00 | Sereno | 25 | 1 | 20 | 1028 | 0 | N 3.7 | |
| Oggi h: 16:00 | Sereno | 28 | 2 | 18 | 1027 | 0 | N 3.7 | |
| Oggi h: 15:00 | Sereno | 28 | 2 | 18 | 1027 | 0 | N 5.5 | |
| Oggi h: 14:00 | Sereno | 28 | 3 | 20 | 1027 | 0 | N 5.5 | |
| Oggi h: 13:00 | Sereno | 27 | 1 | 18 | 1028 | 0 | N/NE 9.3 | |
| Oggi h: 12:00 | Sereno | 26 | 2 | 20 | 1028 | 0 | N 13 | |
| Oggi h: 11:00 | Sereno | 23 | 2 | 25 | 1029 | 0 | N 16.7 | |
| Oggi h: 10:00 | Sereno | 23 | 3 | 26 | 1029 | 0 | N 7.4 | |
| Oggi h: 09:00 | Sereno | 21 | 3 | 30 | 1028 | 0 | N 5.5 | |
| Oggi h: 08:00 | Sereno | 13 | 2 | 47 | 1028 | 0 | N 3.7 | |
| Oggi h: 07:00 | Sereno | 9 | 1 | 57 | 1028 | 0 | N 1.8 | |
| Oggi h: 06:00 | Sereno | 6 | 1 | 70 | 1027 | 0 | N 0 | |
| Oggi h: 05:00 | Sereno | 7 | 2 | 70 | 1027 | 0 | N 3.7 | |
| Oggi h: 04:00 | Sereno | 7 | 2 | 70 | 1027 | 0 | N 0 | |
| Oggi h: 03:00 | Sereno | 6 | 2 | 75 | 1027 | 0 | N 0 | |
| Oggi h: 02:00 | Sereno | 8 | 2 | 65 | 1027 | 0 | N 1.8 | |
| Oggi h: 01:00 | Sereno | 9 | 1 | 57 | 1028 | 0 | N 3.7 | |
| Oggi h: 00:00 | Sereno | 9 | 1 | 57 | 1028 | 0 | N 1.8 | |



